Time;durP1;ratioP1;P1;durP2;ratioP2;P2;SDS_P1;SDS_P2;PMS_P1;PMS_P2;Temp;Humidity;BMP_temperature;BMP_pressure;BME280_temperature;BME280_humidity;BME280_pressure;Samples;Min_cycle;Max_cycle;Signal;HPM_P1;HPM_P2
2023/07/14 00:01:27;;;;;;;4.22;1.67;;;16.70;99.90;;;;;;5049201;28;20029;-76
2023/07/14 00:03:53;;;;;;;4.57;1.80;;;16.60;99.90;;;;;;5049790;28;20028;-75
2023/07/14 00:06:20;;;;;;;5.85;1.95;;;16.60;99.90;;;;;;5049369;28;20043;-75
2023/07/14 00:08:48;;;;;;;3.28;1.50;;;16.50;99.90;;;;;;5050187;28;20068;-75
2023/07/14 00:11:19;;;;;;;5.60;1.55;;;16.60;99.90;;;;;;5049129;28;20036;-76
2023/07/14 00:13:45;;;;;;;2.55;1.52;;;16.60;99.90;;;;;;5049601;28;20033;-76
2023/07/14 00:16:14;;;;;;;4.00;1.52;;;16.60;99.90;;;;;;5049293;28;20025;-76
2023/07/14 00:18:40;;;;;;;3.38;1.50;;;16.60;99.90;;;;;;5049900;28;20111;-76
2023/07/14 00:21:16;;;;;;;3.30;1.27;;;16.50;99.90;;;;;;5049147;28;20044;-77
2023/07/14 00:23:43;;;;;;;2.95;1.42;;;16.50;99.90;;;;;;5050096;28;20021;-76
2023/07/14 00:26:14;;;;;;;4.07;1.25;;;16.50;99.90;;;;;;5049257;28;20029;-77
2023/07/14 00:28:40;;;;;;;2.40;1.45;;;16.50;99.90;;;;;;5049915;28;20057;-76
2023/07/14 00:31:14;;;;;;;1.77;1.23;;;16.50;99.90;;;;;;5049539;28;20021;-78
2023/07/14 00:33:40;;;;;;;5.07;1.70;;;16.50;99.90;;;;;;5049520;28;20029;-76
2023/07/14 00:36:06;;;;;;;4.88;1.85;;;16.50;99.90;;;;;;5051754;28;20191;-76
2023/07/14 00:38:34;;;;;;;4.57;1.50;;;16.50;99.90;;;;;;5053034;28;20043;-76
2023/07/14 00:41:01;;;;;;;4.00;1.10;;;16.50;99.90;;;;;;5052916;28;20120;-76
2023/07/14 00:43:29;;;;;;;4.00;1.55;;;16.60;99.90;;;;;;5052928;28;20024;-76
2023/07/14 00:45:56;;;;;;;4.60;1.60;;;16.60;99.90;;;;;;5051756;28;20035;-76
2023/07/14 00:48:26;;;;;;;3.45;1.25;;;16.60;99.90;;;;;;5052297;28;20379;-77
2023/07/14 00:51:11;;;;;;;2.55;1.27;;;16.60;99.90;;;;;;5052520;28;20041;-76
2023/07/14 00:53:39;;;;;;;6.00;1.65;;;16.60;99.90;;;;;;5052703;28;20425;-76
2023/07/14 00:56:11;;;;;;;2.13;1.67;;;16.50;99.90;;;;;;5052795;28;20025;-77
2023/07/14 00:58:38;;;;;;;3.97;1.53;;;16.50;99.90;;;;;;5052816;28;20188;-77
2023/07/14 01:01:11;;;;;;;3.38;1.73;;;16.60;99.90;;;;;;5052912;28;20025;-76
2023/07/14 01:03:42;;;;;;;3.63;1.40;;;16.50;99.90;;;;;;5053084;28;20083;-76
2023/07/14 01:06:15;;;;;;;4.68;1.50;;;16.60;99.90;;;;;;5052442;28;20029;-77
2023/07/14 01:08:55;;;;;;;3.85;1.60;;;16.50;99.90;;;;;;5052545;28;20448;-76
2023/07/14 01:11:31;;;;;;;1.80;1.10;;;16.50;99.90;;;;;;5052080;28;20037;-76
2023/07/14 01:14:00;;;;;;;3.20;1.52;;;16.50;99.90;;;;;;5052151;28;20053;-76
2023/07/14 01:16:29;;;;;;;2.72;1.35;;;16.40;99.90;;;;;;5050258;28;20467;-76
2023/07/14 01:18:56;;;;;;;4.13;1.52;;;16.50;99.90;;;;;;5052207;28;20040;-76
2023/07/14 01:21:22;;;;;;;3.65;1.50;;;16.40;99.90;;;;;;5050030;28;20102;-77
2023/07/14 01:24:15;;;;;;;5.72;2.05;;;16.50;99.90;;;;;;5052064;28;20088;-77
2023/07/14 01:27:02;;;;;;;2.60;1.63;;;16.50;99.90;;;;;;5052074;28;20029;-77
2023/07/14 01:29:28;;;;;;;3.47;1.10;;;16.50;99.90;;;;;;5051886;28;20051;-76
2023/07/14 01:31:55;;;;;;;3.10;1.38;;;16.50;99.90;;;;;;5052331;28;20029;-76
2023/07/14 01:34:22;;;;;;;1.48;1.35;;;16.50;99.90;;;;;;5051881;28;20335;-76
2023/07/14 01:36:48;;;;;;;3.40;1.67;;;16.50;99.90;;;;;;5052299;28;20032;-76
2023/07/14 01:39:15;;;;;;;4.70;1.60;;;16.50;99.90;;;;;;5033752;28;20312;-77
2023/07/14 01:41:41;;;;;;;1.60;1.20;;;16.50;99.90;;;;;;5052102;28;20090;-77
2023/07/14 01:44:15;;;;;;;3.45;1.42;;;16.50;99.90;;;;;;5050592;28;20075;-76
2023/07/14 01:46:41;;;;;;;4.55;1.70;;;16.50;99.90;;;;;;5050671;28;20108;-76
2023/07/14 01:49:14;;;;;;;3.83;1.23;;;16.40;99.90;;;;;;5051543;28;20155;-76
2023/07/14 01:51:43;;;;;;;2.95;1.40;;;16.40;99.90;;;;;;5052090;28;20383;-76
2023/07/14 01:54:31;;;;;;;3.78;1.60;;;16.40;99.90;;;;;;5052047;28;20063;-76
2023/07/14 01:56:59;;;;;;;3.63;1.48;;;16.30;99.90;;;;;;5051829;28;20166;-76
2023/07/14 01:59:30;;;;;;;4.72;1.60;;;16.30;99.90;;;;;;5051238;28;20369;-77
2023/07/14 02:02:02;;;;;;;2.72;1.33;;;16.30;99.90;;;;;;5051700;28;20532;-74
2023/07/14 02:04:35;;;;;;;3.63;1.77;;;16.30;99.90;;;;;;5051159;28;20032;-77
2023/07/14 02:07:01;;;;;;;3.13;1.48;;;16.30;99.90;;;;;;5051426;28;20719;-76
2023/07/14 02:09:29;;;;;;;4.63;2.03;;;16.20;99.90;;;;;;5050833;28;20036;-76
2023/07/14 02:12:01;;;;;;;5.03;1.80;;;16.00;99.90;;;;;;5051474;28;20025;-76
2023/07/14 02:14:37;;;;;;;5.17;1.70;;;16.10;99.90;;;;;;5049547;28;20021;-77
2023/07/14 02:17:08;;;;;;;3.63;1.85;;;16.10;99.90;;;;;;5050156;28;20051;-76
2023/07/14 02:19:35;;;;;;;2.53;1.60;;;15.90;99.90;;;;;;5051269;28;20121;-76
2023/07/14 02:22:02;;;;;;;2.75;1.67;;;15.90;99.90;;;;;;5051309;28;20188;-76
2023/07/14 02:24:30;;;;;;;3.42;1.27;;;15.80;99.90;;;;;;5050823;28;20060;-77
2023/07/14 02:27:00;;;;;;;3.38;1.77;;;15.80;99.90;;;;;;5050750;28;20102;-76
2023/07/14 02:29:26;;;;;;;3.63;1.63;;;15.80;99.90;;;;;;5050520;28;20064;-77
2023/07/14 02:32:16;;;;;;;5.20;1.92;;;15.80;99.90;;;;;;5051285;28;20055;-76
2023/07/14 02:34:57;;;;;;;3.80;1.90;;;15.70;99.90;;;;;;5051297;28;20033;-75
2023/07/14 02:37:40;;;;;;;4.15;1.88;;;15.70;99.90;;;;;;5050656;28;20029;-76
2023/07/14 02:40:07;;;;;;;4.18;1.85;;;15.70;99.90;;;;;;5051460;28;20087;-75
2023/07/14 02:42:37;;;;;;;3.08;1.60;;;15.70;99.90;;;;;;5050608;28;20063;-76
2023/07/14 02:45:04;;;;;;;2.75;1.65;;;15.70;99.90;;;;;;5049899;28;20091;-76
2023/07/14 02:47:34;;;;;;;2.78;1.70;;;15.60;99.90;;;;;;5050462;28;20032;-76
2023/07/14 02:50:00;;;;;;;3.90;1.85;;;15.60;99.90;;;;;;5051128;28;20021;-75
2023/07/14 02:52:25;;;;;;;3.33;1.90;;;15.50;99.90;;;;;;5050534;28;20078;-76
2023/07/14 02:54:51;;;;;;;3.95;2.25;;;15.50;99.90;;;;;;5049477;28;20028;-76
2023/07/14 02:57:17;;;;;;;3.75;2.50;;;15.50;99.90;;;;;;5050441;28;20021;-76
2023/07/14 02:59:42;;;;;;;4.38;2.50;;;15.40;99.90;;;;;;5050654;28;20057;-76
2023/07/14 03:02:08;;;;;;;4.57;2.20;;;15.40;99.90;;;;;;5050679;28;20094;-76
2023/07/14 03:04:35;;;;;;;5.35;2.10;;;15.40;99.90;;;;;;5050372;28;20029;-76
2023/07/14 03:07:01;;;;;;;2.92;2.10;;;15.30;99.90;;;;;;5051158;28;20033;-76
2023/07/14 03:09:27;;;;;;;5.93;2.17;;;15.30;99.90;;;;;;5050000;28;20174;-76
2023/07/14 03:11:53;;;;;;;3.33;1.77;;;15.20;99.90;;;;;;5050784;28;20183;-76
2023/07/14 03:14:19;;;;;;;4.13;2.15;;;15.10;99.90;;;;;;5048897;28;20527;-76
2023/07/14 03:16:44;;;;;;;3.22;1.75;;;15.10;99.90;;;;;;5050597;28;20031;-76
2023/07/14 03:19:10;;;;;;;3.13;1.80;;;15.10;99.90;;;;;;5051038;28;20034;-75
2023/07/14 03:21:36;;;;;;;3.88;2.17;;;15.00;99.90;;;;;;5050810;28;20170;-76
2023/07/14 03:24:02;;;;;;;4.93;2.55;;;15.00;99.90;;;;;;5051090;28;20437;-76
2023/07/14 03:26:27;;;;;;;3.65;2.42;;;14.90;99.90;;;;;;5050737;28;20025;-76
2023/07/14 03:28:53;;;;;;;3.08;2.40;;;14.80;99.90;;;;;;5051224;28;20053;-76
2023/07/14 03:31:19;;;;;;;4.88;2.45;;;14.70;99.90;;;;;;5050534;28;20033;-76
2023/07/14 03:33:44;;;;;;;5.25;2.03;;;14.70;99.90;;;;;;5050543;28;20059;-76
2023/07/14 03:36:13;;;;;;;4.45;2.38;;;14.60;99.90;;;;;;5050622;28;20116;-75
2023/07/14 03:39:17;;;;;;;4.65;2.17;;;14.60;99.90;;;;;;5049911;28;20063;-76
2023/07/14 03:41:42;;;;;;;2.97;1.65;;;14.60;99.90;;;;;;5048686;28;20453;-76
2023/07/14 03:44:08;;;;;;;5.05;2.10;;;14.50;99.90;;;;;;5048892;28;20108;-75
2023/07/14 03:46:34;;;;;;;3.40;1.90;;;14.50;99.90;;;;;;5049594;28;20334;-76
2023/07/14 03:49:00;;;;;;;3.00;1.92;;;14.50;99.90;;;;;;5049920;28;20069;-75
2023/07/14 03:51:25;;;;;;;5.78;2.60;;;14.50;99.90;;;;;;5049666;28;20484;-76
2023/07/14 03:53:51;;;;;;;3.53;2.00;;;14.60;99.90;;;;;;5049922;28;20078;-76
2023/07/14 03:56:17;;;;;;;3.03;2.15;;;14.60;99.90;;;;;;5050370;28;20510;-74
2023/07/14 03:58:43;;;;;;;3.80;1.83;;;14.70;99.90;;;;;;5049633;28;20095;-74
2023/07/14 04:01:08;;;;;;;3.60;2.08;;;14.70;99.90;;;;;;5049639;28;20048;-74
2023/07/14 04:03:34;;;;;;;3.88;2.00;;;14.70;99.90;;;;;;5048844;28;20149;-74
2023/07/14 04:06:00;;;;;;;3.10;2.00;;;14.80;99.90;;;;;;5049678;28;20025;-74
2023/07/14 04:08:25;;;;;;;4.68;2.15;;;14.80;99.90;;;;;;5047914;28;20039;-75
2023/07/14 04:10:51;;;;;;;5.43;2.03;;;14.80;99.90;;;;;;5051030;28;20040;-75
2023/07/14 04:13:17;;;;;;;3.30;2.00;;;14.90;99.90;;;;;;5053509;28;20055;-74
2023/07/14 04:15:43;;;;;;;4.20;1.95;;;14.90;99.90;;;;;;5052965;28;20035;-75
2023/07/14 04:18:08;;;;;;;7.13;2.30;;;14.90;99.90;;;;;;5053175;28;20455;-75
2023/07/14 04:20:34;;;;;;;6.22;2.00;;;15.10;99.90;;;;;;5052872;28;20060;-75
2023/07/14 04:23:00;;;;;;;3.75;1.77;;;15.00;99.90;;;;;;5053321;28;20467;-75
2023/07/14 04:25:26;;;;;;;3.33;1.95;;;15.10;99.90;;;;;;5052773;28;20407;-74
2023/07/14 04:27:52;;;;;;;6.50;2.22;;;15.20;99.90;;;;;;5053054;28;20052;-74
2023/07/14 04:30:18;;;;;;;6.53;2.40;;;15.20;99.90;;;;;;5053006;28;20021;-74
2023/07/14 04:32:46;;;;;;;4.20;1.80;;;15.20;99.90;;;;;;5052295;28;20021;-74
2023/07/14 04:35:12;;;;;;;5.40;2.00;;;15.30;99.90;;;;;;5052973;28;20025;-74
2023/07/14 04:37:38;;;;;;;8.55;2.17;;;15.30;99.90;;;;;;5052621;28;20546;-74
2023/07/14 04:40:06;;;;;;;5.32;2.40;;;15.30;99.90;;;;;;5052922;28;20021;-74
2023/07/14 04:42:32;;;;;;;6.65;2.60;;;15.40;99.90;;;;;;5052335;28;20526;-75
2023/07/14 04:44:58;;;;;;;7.30;2.22;;;15.40;99.90;;;;;;5053232;28;20104;-74
2023/07/14 04:47:23;;;;;;;5.88;2.15;;;15.50;99.90;;;;;;5052240;28;20017;-75
2023/07/14 04:49:49;;;;;;;7.22;2.22;;;15.50;99.90;;;;;;5052867;28;20036;-74
2023/07/14 04:52:15;;;;;;;5.22;2.28;;;15.50;99.90;;;;;;5052735;28;20403;-74
2023/07/14 04:54:40;;;;;;;6.13;2.38;;;15.50;99.90;;;;;;5052108;28;20089;-75
2023/07/14 04:57:07;;;;;;;5.68;2.30;;;15.50;99.90;;;;;;5053141;28;20032;-74
2023/07/14 04:59:34;;;;;;;4.07;2.20;;;15.50;99.90;;;;;;5052112;28;20032;-74
2023/07/14 05:02:00;;;;;;;6.50;2.42;;;15.40;99.90;;;;;;5053150;28;20484;-74
2023/07/14 05:04:29;;;;;;;6.75;2.00;;;15.40;99.90;;;;;;5051994;28;20114;-74
2023/07/14 05:06:55;;;;;;;7.50;2.53;;;15.40;99.90;;;;;;5052550;28;20078;-74
2023/07/14 05:09:21;;;;;;;6.40;2.58;;;15.50;99.90;;;;;;5052134;28;20397;-74
2023/07/14 05:11:46;;;;;;;9.20;2.25;;;15.40;99.90;;;;;;5051853;28;20035;-74
2023/07/14 05:14:12;;;;;;;7.28;2.67;;;15.50;99.90;;;;;;5052396;28;20033;-74
2023/07/14 05:16:38;;;;;;;7.10;2.67;;;15.50;99.90;;;;;;5051841;28;20458;-75
2023/07/14 05:19:04;;;;;;;9.15;2.78;;;15.50;99.90;;;;;;5052183;28;20032;-74
2023/07/14 05:21:30;;;;;;;6.45;2.58;;;15.50;99.90;;;;;;5051476;28;20025;-74
2023/07/14 05:23:55;;;;;;;7.72;2.80;;;15.50;99.90;;;;;;5051983;28;20036;-74
2023/07/14 05:26:21;;;;;;;5.15;2.60;;;15.50;99.90;;;;;;5052412;28;20025;-74
2023/07/14 05:28:47;;;;;;;8.05;2.67;;;15.50;99.90;;;;;;5051293;28;20076;-74
2023/07/14 05:31:13;;;;;;;8.43;2.92;;;15.50;99.90;;;;;;5051807;28;20033;-75
2023/07/14 05:33:39;;;;;;;6.80;2.78;;;15.50;99.90;;;;;;5051286;28;20021;-75
2023/07/14 05:36:05;;;;;;;10.02;3.00;;;15.50;99.90;;;;;;5051525;28;20025;-74
2023/07/14 05:38:31;;;;;;;5.85;2.88;;;15.60;99.90;;;;;;5051413;28;20406;-74
2023/07/14 05:40:57;;;;;;;5.30;2.55;;;15.60;99.90;;;;;;5051475;28;20051;-73
2023/07/14 05:43:25;;;;;;;7.95;2.70;;;15.60;99.90;;;;;;5051482;28;20056;-74
2023/07/14 05:45:51;;;;;;;10.38;2.97;;;15.70;99.90;;;;;;5051545;28;20154;-74
2023/07/14 05:48:17;;;;;;;8.70;3.10;;;15.70;99.90;;;;;;5051711;28;20136;-74
2023/07/14 05:50:46;;;;;;;9.25;3.45;;;15.70;99.90;;;;;;5050962;28;20021;-75
2023/07/14 05:53:14;;;;;;;7.60;3.05;;;15.60;99.90;;;;;;5051576;28;20323;-75
2023/07/14 05:55:40;;;;;;;7.85;3.28;;;15.60;99.90;;;;;;5051306;28;20044;-74
2023/07/14 05:58:07;;;;;;;9.65;3.15;;;15.60;99.90;;;;;;5051497;28;20033;-74
2023/07/14 06:00:38;;;;;;;9.35;3.30;;;15.60;99.90;;;;;;5050894;28;20021;-75
2023/07/14 06:03:10;;;;;;;8.18;3.25;;;15.60;99.90;;;;;;5051450;28;20057;-74
2023/07/14 06:05:35;;;;;;;8.87;2.70;;;15.60;99.90;;;;;;5050928;28;20017;-73
2023/07/14 06:08:02;;;;;;;7.95;3.17;;;15.50;99.90;;;;;;5051495;28;20624;-74
2023/07/14 06:10:27;;;;;;;6.53;3.40;;;15.60;99.90;;;;;;5051036;28;20040;-76
2023/07/14 06:12:53;;;;;;;9.73;3.47;;;15.50;99.90;;;;;;5050058;28;20150;-75
2023/07/14 06:15:19;;;;;;;9.95;2.97;;;15.50;99.90;;;;;;5051592;28;20051;-75
2023/07/14 06:17:44;;;;;;;6.72;2.83;;;15.50;99.90;;;;;;5050981;28;20082;-74
2023/07/14 06:20:11;;;;;;;6.43;2.35;;;15.50;99.90;;;;;;5051401;28;20029;-75
2023/07/14 06:22:38;;;;;;;6.35;2.55;;;15.60;99.90;;;;;;5050754;28;20025;-75
2023/07/14 06:25:04;;;;;;;4.65;1.77;;;15.60;99.90;;;;;;5051281;28;20371;-74
2023/07/14 06:27:33;;;;;;;3.33;1.65;;;15.60;99.90;;;;;;5050509;28;20045;-76
2023/07/14 06:29:59;;;;;;;1.98;1.40;;;15.70;99.90;;;;;;5050907;28;20386;-75
2023/07/14 06:32:25;;;;;;;3.83;1.75;;;15.70;99.90;;;;;;5050858;28;20021;-74
2023/07/14 06:34:51;;;;;;;3.22;1.40;;;15.80;99.90;;;;;;5049687;28;20025;-74
2023/07/14 06:37:16;;;;;;;2.15;1.50;;;15.80;99.90;;;;;;5049578;28;20036;-73
2023/07/14 06:39:43;;;;;;;2.13;1.52;;;15.90;99.90;;;;;;5050707;28;20203;-75
2023/07/14 06:42:09;;;;;;;3.63;1.50;;;15.90;99.90;;;;;;5051327;28;20321;-76
2023/07/14 06:44:35;;;;;;;2.60;1.70;;;15.90;99.90;;;;;;5050340;28;20021;-77
2023/07/14 06:47:01;;;;;;;2.42;1.50;;;15.90;99.90;;;;;;5049743;28;20035;-76
2023/07/14 06:49:26;;;;;;;2.25;1.38;;;15.80;99.90;;;;;;5051016;28;20090;-76
2023/07/14 06:51:52;;;;;;;3.33;1.65;;;15.80;99.90;;;;;;5050180;28;20025;-75
2023/07/14 06:54:18;;;;;;;2.75;1.02;;;15.80;99.90;;;;;;5050902;28;20029;-75
2023/07/14 06:56:44;;;;;;;2.88;1.23;;;15.80;99.90;;;;;;5049012;28;20070;-75
2023/07/14 06:59:10;;;;;;;4.32;1.02;;;15.80;99.90;;;;;;5050773;28;20021;-76
2023/07/14 07:01:35;;;;;;;1.30;1.08;;;15.80;99.90;;;;;;5049802;28;20017;-76
2023/07/14 07:04:01;;;;;;;3.03;1.60;;;15.70;99.90;;;;;;5050377;28;20036;-75
2023/07/14 07:06:27;;;;;;;6.07;1.60;;;15.70;99.90;;;;;;5050437;28;20474;-75
2023/07/14 07:08:53;;;;;;;4.03;1.77;;;15.60;99.90;;;;;;5050243;28;20108;-75
2023/07/14 07:11:18;;;;;;;1.88;1.35;;;15.60;99.90;;;;;;5050490;28;20028;-75
2023/07/14 07:13:44;;;;;;;4.45;1.52;;;15.60;99.90;;;;;;5050350;28;20029;-75
2023/07/14 07:16:10;;;;;;;2.72;1.17;;;15.60;99.90;;;;;;5048927;28;20032;-75
2023/07/14 07:18:36;;;;;;;4.22;1.73;;;15.50;99.90;;;;;;5049634;28;20361;-75
2023/07/14 07:21:02;;;;;;;4.28;1.67;;;15.50;99.90;;;;;;5050134;28;20461;-75
2023/07/14 07:23:27;;;;;;;2.85;1.40;;;15.50;99.90;;;;;;5050174;28;20033;-75
2023/07/14 07:25:55;;;;;;;3.40;1.90;;;15.50;99.90;;;;;;5050086;28;20438;-75
2023/07/14 07:28:22;;;;;;;3.53;1.42;;;15.40;99.90;;;;;;5050075;28;20049;-76
2023/07/14 07:30:48;;;;;;;2.28;1.65;;;15.50;99.90;;;;;;5049740;28;20116;-75
2023/07/14 07:33:14;;;;;;;3.08;1.95;;;15.50;99.90;;;;;;5050160;28;20068;-76
2023/07/14 07:35:41;;;;;;;3.72;1.52;;;15.40;99.90;;;;;;5049311;28;20058;-76
2023/07/14 07:38:10;;;;;;;6.53;2.17;;;15.40;99.90;;;;;;5050453;28;20057;-74
2023/07/14 07:40:37;;;;;;;6.45;2.00;;;15.50;99.90;;;;;;5049599;28;20056;-74
2023/07/14 07:43:03;;;;;;;5.50;1.98;;;15.50;99.90;;;;;;5049995;28;20062;-75
2023/07/14 07:45:28;;;;;;;6.15;1.90;;;15.50;99.90;;;;;;5053095;28;20106;-75
2023/07/14 07:47:54;;;;;;;6.28;2.30;;;15.50;99.90;;;;;;5053782;28;20025;-75
2023/07/14 07:50:20;;;;;;;4.72;1.95;;;15.50;99.90;;;;;;5054296;28;20025;-74
2023/07/14 07:52:46;;;;;;;3.70;2.13;;;15.50;99.90;;;;;;5053587;28;20029;-76
2023/07/14 07:55:12;;;;;;;3.25;1.75;;;15.40;99.90;;;;;;5054536;28;20044;-76
2023/07/14 07:57:37;;;;;;;3.53;1.60;;;15.40;99.90;;;;;;5052385;28;20415;-76
2023/07/14 08:00:06;;;;;;;6.82;1.90;;;15.40;99.90;;;;;;5052900;28;20033;-75
2023/07/14 08:02:31;;;;;;;5.45;1.92;;;15.40;99.90;;;;;;5053715;28;20075;-76
2023/07/14 08:04:57;;;;;;;4.97;2.10;;;15.50;99.90;;;;;;5052221;28;20064;-75
2023/07/14 08:07:23;;;;;;;3.63;1.70;;;15.40;99.90;;;;;;5054299;28;20067;-75
2023/07/14 08:09:50;;;;;;;7.25;2.00;;;15.40;99.90;;;;;;5053524;28;20044;-75
2023/07/14 08:12:16;;;;;;;3.25;1.70;;;15.40;99.90;;;;;;5053823;28;20033;-76
2023/07/14 08:14:59;;;;;;;6.60;2.15;;;15.40;99.90;;;;;;5053241;28;20040;-75
2023/07/14 08:17:27;;;;;;;5.53;1.92;;;15.40;99.90;;;;;;5053826;28;20386;-75
2023/07/14 08:19:53;;;;;;;5.22;2.38;;;15.40;99.90;;;;;;5053308;28;20453;-75
2023/07/14 08:22:23;;;;;;;8.32;2.13;;;15.30;99.90;;;;;;5052829;28;20467;-76
2023/07/14 08:24:49;;;;;;;4.00;1.70;;;15.30;99.90;;;;;;5053085;28;20473;-76
2023/07/14 08:27:15;;;;;;;4.20;2.10;;;15.30;99.90;;;;;;5053469;28;20064;-75
2023/07/14 08:29:42;;;;;;;4.30;1.92;;;15.20;99.90;;;;;;5052952;28;20089;-75
2023/07/14 08:32:08;;;;;;;4.90;2.00;;;15.20;99.90;;;;;;5053240;28;20029;-76
2023/07/14 08:34:34;;;;;;;6.15;1.90;;;15.10;99.90;;;;;;5053321;28;20439;-75
2023/07/14 08:37:00;;;;;;;7.10;2.13;;;15.10;99.90;;;;;;5053005;28;20057;-75
2023/07/14 08:39:26;;;;;;;4.35;2.17;;;15.20;99.90;;;;;;5053166;28;20118;-76
2023/07/14 08:41:56;;;;;;;2.53;1.90;;;15.20;99.90;;;;;;5052404;28;20025;-77
2023/07/14 08:44:54;;;;;;;3.67;2.10;;;15.10;99.90;;;;;;5053559;28;20466;-76
2023/07/14 08:47:26;;;;;;;6.28;2.17;;;15.10;99.90;;;;;;5053125;28;20064;-77
2023/07/14 08:50:23;;;;;;;4.68;2.75;;;15.10;99.90;;;;;;5052215;28;20040;-76
2023/07/14 08:52:51;;;;;;;5.40;2.35;;;15.00;99.90;;;;;;5052145;28;20212;-74
2023/07/14 08:55:29;;;;;;;3.97;2.25;;;14.90;99.90;;;;;;5052155;28;20029;-75
2023/07/14 08:58:01;;;;;;;3.85;2.25;;;14.90;99.90;;;;;;5051491;28;20033;-75
2023/07/14 09:00:43;;;;;;;4.03;2.10;;;14.90;99.90;;;;;;5052278;28;20032;-77
2023/07/14 09:03:16;;;;;;;4.38;2.13;;;14.80;99.90;;;;;;5053045;28;20127;-76
2023/07/14 09:05:54;;;;;;;3.42;2.08;;;14.80;99.90;;;;;;5051700;28;20112;-76
2023/07/14 09:08:29;;;;;;;7.13;2.60;;;14.80;99.90;;;;;;5052060;28;20060;-75
2023/07/14 09:11:19;;;;;;;7.90;2.80;;;14.80;99.90;;;;;;5051552;28;20527;-76
2023/07/14 09:14:08;;;;;;;5.38;2.83;;;14.90;99.90;;;;;;5032785;28;20025;-74
2023/07/14 09:16:40;;;;;;;9.73;3.03;;;14.90;99.90;;;;;;5029331;28;20093;-76
2023/07/14 09:19:36;;;;;;;12.63;2.97;;;14.90;99.90;;;;;;5050983;28;20025;-76
2023/07/14 09:22:40;;;;;;;12.05;2.60;;;14.80;99.90;;;;;;5051328;28;20040;-75
2023/07/14 09:25:37;;;;;;;8.93;2.60;;;14.70;99.90;;;;;;5049557;28;20056;-76
2023/07/14 09:28:09;;;;;;;8.02;2.83;;;14.80;99.90;;;;;;5050701;28;20072;-75
2023/07/14 09:30:36;;;;;;;7.82;3.30;;;14.80;99.90;;;;;;5051262;28;20029;-75
2023/07/14 09:33:03;;;;;;;9.23;3.55;;;14.80;99.90;;;;;;5051159;28;20390;-73
2023/07/14 09:35:30;;;;;;;13.52;2.95;;;14.80;99.90;;;;;;5051900;28;20443;-73
2023/07/14 09:38:34;;;;;;;12.25;3.13;;;14.80;99.90;;;;;;5050696;28;20092;-75
2023/07/14 09:41:02;;;;;;;17.67;3.75;;;14.80;99.90;;;;;;5050138;28;20102;-74
2023/07/14 09:43:28;;;;;;;14.02;3.72;;;14.80;99.90;;;;;;5052215;28;20481;-74
2023/07/14 09:45:55;;;;;;;12.40;3.53;;;14.70;99.90;;;;;;5051756;28;20033;-75
2023/07/14 09:48:31;;;;;;;15.13;3.65;;;14.70;99.90;;;;;;5051627;28;20033;-74
2023/07/14 09:51:20;;;;;;;16.52;3.60;;;14.70;99.90;;;;;;5050675;28;20453;-75
2023/07/14 09:54:00;;;;;;;11.18;3.78;;;14.70;99.90;;;;;;5051288;28;20112;-75
2023/07/14 09:56:31;;;;;;;16.00;4.43;;;14.70;99.90;;;;;;5052117;28;20087;-74
2023/07/14 09:59:16;;;;;;;5.60;3.40;;;14.70;99.90;;;;;;5051178;28;20143;-74
2023/07/14 10:02:02;;;;;;;7.80;3.47;;;14.80;99.90;;;;;;5051229;28;20025;-77
2023/07/14 10:04:30;;;;;;;10.60;3.85;;;14.70;99.90;;;;;;5051452;28;20029;-75
2023/07/14 10:07:25;;;;;;;9.98;3.90;;;14.80;99.90;;;;;;5050648;28;20033;-75
2023/07/14 10:10:08;;;;;;;12.63;4.13;;;14.80;99.90;;;;;;5048331;28;20090;-75
2023/07/14 10:12:42;;;;;;;10.00;4.13;;;14.80;99.90;;;;;;5051544;28;20079;-75
2023/07/14 10:15:30;;;;;;;17.17;5.93;;;14.80;99.90;;;;;;5050915;28;20032;-76
2023/07/14 10:18:01;;;;;;;16.95;5.22;;;14.70;99.90;;;;;;5049466;28;20363;-77
2023/07/14 10:20:28;;;;;;;20.73;6.10;;;14.80;99.90;;;;;;5051135;28;20051;-74
2023/07/14 10:22:57;;;;;;;16.90;6.88;;;14.70;99.90;;;;;;5050509;28;20033;-75
2023/07/14 10:25:24;;;;;;;14.50;5.70;;;14.80;99.90;;;;;;5050981;28;20029;-74
2023/07/14 10:28:10;;;;;;;18.30;6.72;;;14.80;99.90;;;;;;5050268;28;20363;-74
2023/07/14 10:30:57;;;;;;;17.90;5.78;;;14.90;99.90;;;;;;5051014;28;20060;-74
2023/07/14 10:33:54;;;;;;;12.88;5.60;;;14.80;99.90;;;;;;5050733;28;20048;-74
2023/07/14 10:36:25;;;;;;;18.55;5.80;;;14.80;99.90;;;;;;5051120;28;20021;-73
2023/07/14 10:38:58;;;;;;;12.05;4.85;;;14.80;99.90;;;;;;5050177;28;20106;-73
2023/07/14 10:41:25;;;;;;;12.30;5.05;;;14.80;99.90;;;;;;5051355;28;20017;-73
2023/07/14 10:43:56;;;;;;;11.57;4.43;;;14.80;99.90;;;;;;5050297;28;20056;-73
2023/07/14 10:46:26;;;;;;;11.13;4.88;;;14.80;99.90;;;;;;5049273;28;20400;-73
2023/07/14 10:48:57;;;;;;;11.93;4.85;;;14.80;99.90;;;;;;5049214;28;20062;-73
2023/07/14 10:51:55;;;;;;;19.92;4.82;;;14.80;99.90;;;;;;5049541;28;20382;-73
2023/07/14 10:54:40;;;;;;;17.02;5.57;;;14.80;99.90;;;;;;5051040;28;20067;-73
2023/07/14 10:57:13;;;;;;;24.98;5.90;;;14.90;99.90;;;;;;5050988;28;20134;-73
2023/07/14 11:00:10;;;;;;;18.70;5.53;;;14.90;99.90;;;;;;5050256;28;20442;-74
2023/07/14 11:02:43;;;;;;;13.85;4.70;;;14.80;99.90;;;;;;5038969;28;20037;-74
2023/07/14 11:05:15;;;;;;;22.88;4.90;;;14.80;99.90;;;;;;5049542;28;20036;-73
2023/07/14 11:07:41;;;;;;;28.65;5.38;;;14.80;99.90;;;;;;5050235;28;20029;-73
2023/07/14 11:10:27;;;;;;;13.32;4.43;;;14.80;99.90;;;;;;5049523;28;20132;-73
2023/07/14 11:13:08;;;;;;;24.30;5.40;;;14.90;99.90;;;;;;5049963;28;20031;-73
2023/07/14 11:15:44;;;;;;;19.40;4.88;;;14.80;99.90;;;;;;5050474;28;20100;-74
2023/07/14 11:18:25;;;;;;;20.10;5.00;;;14.90;99.90;;;;;;5048910;28;20029;-74
2023/07/14 11:21:05;;;;;;;21.48;5.03;;;14.80;99.90;;;;;;5049337;28;20381;-74
2023/07/14 11:23:45;;;;;;;21.80;5.60;;;14.80;99.90;;;;;;5050101;28;20458;-74
2023/07/14 11:26:16;;;;;;;20.83;4.80;;;14.80;99.90;;;;;;5049916;28;20052;-75
2023/07/14 11:29:14;;;;;;;23.20;5.45;;;14.90;99.90;;;;;;5049080;28;20550;-75
2023/07/14 11:31:50;;;;;;;21.25;4.65;;;14.80;99.90;;;;;;5050279;28;20494;-75
2023/07/14 11:34:47;;;;;;;22.00;4.80;;;14.90;99.90;;;;;;5050597;28;20044;-75
2023/07/14 11:37:35;;;;;;;18.40;4.50;;;14.80;99.90;;;;;;5049492;28;20128;-75
2023/07/14 11:40:05;;;;;;;24.73;5.03;;;14.80;99.90;;;;;;5049635;28;20091;-75
2023/07/14 11:42:35;;;;;;;19.60;4.90;;;14.80;99.90;;;;;;5050655;28;20031;-75
2023/07/14 11:45:05;;;;;;;14.15;4.35;;;14.70;99.90;;;;;;5050306;28;20104;-75
2023/07/14 11:47:37;;;;;;;11.30;4.13;;;14.70;99.90;;;;;;5050305;28;20187;-75
2023/07/14 11:50:33;;;;;;;18.35;4.30;;;14.70;99.90;;;;;;5049106;28;20039;-74
2023/07/14 11:53:18;;;;;;;14.48;3.88;;;14.70;99.90;;;;;;5048875;28;20037;-76
2023/07/14 11:55:47;;;;;;;15.05;4.00;;;14.70;99.90;;;;;;5050363;28;20036;-75
2023/07/14 11:58:30;;;;;;;19.85;4.53;;;14.60;99.90;;;;;;5049622;28;20025;-74
2023/07/14 12:01:06;;;;;;;21.90;4.25;;;14.60;99.90;;;;;;5049312;28;20029;-75
2023/07/14 12:03:40;;;;;;;19.85;4.85;;;14.60;99.90;;;;;;5050027;28;20029;-75
2023/07/14 12:06:21;;;;;;;22.70;4.30;;;14.60;99.90;;;;;;5049269;28;20033;-76
2023/07/14 12:09:03;;;;;;;13.00;4.25;;;14.50;99.90;;;;;;5049493;28;20033;-76
2023/07/14 12:11:43;;;;;;;13.40;4.40;;;14.60;99.90;;;;;;5049446;28;20025;-76
2023/07/14 12:14:35;;;;;;;20.73;4.95;;;14.60;99.90;;;;;;5049461;28;20024;-75
2023/07/14 12:17:02;;;;;;;23.15;5.80;;;14.40;99.90;;;;;;5049548;28;20119;-77
2023/07/14 12:19:48;;;;;;;15.25;3.65;;;14.50;99.90;;;;;;5049828;28;20111;-77
2023/07/14 12:22:53;;;;;;;14.68;3.63;;;14.40;99.90;;;;;;5048820;28;20033;-76
2023/07/14 12:25:22;;;;;;;16.02;4.05;;;14.40;99.90;;;;;;5049652;28;20074;-77
2023/07/14 12:27:53;;;;;;;20.67;4.35;;;14.40;99.90;;;;;;5050120;28;20077;-78
2023/07/14 12:30:25;;;;;;;13.80;4.15;;;14.30;99.90;;;;;;5048810;28;20366;-77
2023/07/14 12:33:10;;;;;;;14.30;4.13;;;14.30;99.90;;;;;;5053128;28;20450;-84
2023/07/14 12:35:37;;;;;;;21.30;4.22;;;14.40;99.90;;;;;;5054164;28;20067;-81
2023/07/14 12:38:15;;;;;;;21.17;4.53;;;14.20;99.90;;;;;;5054071;28;20505;-83
2023/07/14 12:40:41;;;;;;;15.55;4.05;;;14.30;99.90;;;;;;5053953;28;20032;-79
2023/07/14 12:43:19;;;;;;;11.20;3.75;;;14.20;99.90;;;;;;5053427;28;20319;-79
2023/07/14 12:45:45;;;;;;;17.45;3.67;;;14.20;99.90;;;;;;5052514;28;20323;-78
2023/07/14 12:48:11;;;;;;;14.13;3.33;;;14.20;99.90;;;;;;5052864;28;20028;-77
2023/07/14 12:50:40;;;;;;;15.75;4.22;;;14.10;99.90;;;;;;5053264;28;20055;-77
2023/07/14 12:53:13;;;;;;;14.70;3.80;;;14.20;99.90;;;;;;5052802;28;20025;-78
2023/07/14 12:55:39;;;;;;;16.70;3.90;;;14.20;99.90;;;;;;5054057;28;20040;-78
2023/07/14 12:58:08;;;;;;;21.23;4.43;;;14.20;99.90;;;;;;5053451;28;20121;-77
2023/07/14 13:00:34;;;;;;;15.63;4.20;;;14.30;99.90;;;;;;5053628;28;20491;-78
2023/07/14 13:03:08;;;;;;;14.48;3.70;;;14.30;99.90;;;;;;5053469;28;20056;-78